createdAt,value
2023-08-20T00:01:24.487Z,3.45
2023-08-20T00:03:53.628Z,5.10
2023-08-20T00:06:22.534Z,5.13
2023-08-20T00:08:50.754Z,3.80
2023-08-20T00:11:18.738Z,4.63
2023-08-20T00:13:46.491Z,3.80
2023-08-20T00:16:16.372Z,3.67
2023-08-20T00:18:45.000Z,4.93
2023-08-20T00:21:13.390Z,3.88
2023-08-20T00:23:41.564Z,3.27
2023-08-20T00:26:10.191Z,4.90
2023-08-20T00:28:39.717Z,4.57
2023-08-20T00:31:07.703Z,4.00
2023-08-20T00:33:36.795Z,3.53
2023-08-20T00:36:04.765Z,4.10
2023-08-20T00:38:33.916Z,3.83
2023-08-20T00:41:03.373Z,3.60
2023-08-20T00:43:31.180Z,2.73
2023-08-20T00:46:01.168Z,4.13
2023-08-20T00:48:29.029Z,4.23
2023-08-20T00:50:58.063Z,4.13
2023-08-20T00:53:28.387Z,3.60
2023-08-20T00:55:56.965Z,3.80
2023-08-20T00:58:25.011Z,5.50
2023-08-20T01:00:52.695Z,5.33
2023-08-20T01:03:20.625Z,4.70
2023-08-20T01:05:55.793Z,5.00
2023-08-20T01:08:33.601Z,5.17
2023-08-20T01:11:06.014Z,6.80
2023-08-20T01:13:35.444Z,4.90
2023-08-20T01:16:03.219Z,5.40
2023-08-20T01:18:31.241Z,3.27
2023-08-20T01:21:03.499Z,3.90
2023-08-20T01:23:49.777Z,3.87
2023-08-20T01:26:50.278Z,4.30
2023-08-20T01:29:19.358Z,4.63
2023-08-20T01:31:47.559Z,4.37
2023-08-20T01:34:15.408Z,4.43
2023-08-20T01:36:43.233Z,4.00
2023-08-20T01:39:12.324Z,3.97
2023-08-20T01:41:40.104Z,3.03
2023-08-20T01:44:08.614Z,4.20
2023-08-20T01:46:37.897Z,3.33
2023-08-20T01:49:06.086Z,3.07
2023-08-20T01:51:33.917Z,3.97
2023-08-20T01:54:01.652Z,4.27
2023-08-20T01:56:29.437Z,3.60
2023-08-20T01:58:57.186Z,3.43
2023-08-20T02:01:24.976Z,4.63
2023-08-20T02:03:54.062Z,3.03
2023-08-20T02:06:21.992Z,3.60
2023-08-20T02:08:49.652Z,3.27
2023-08-20T02:11:17.688Z,3.43
2023-08-20T02:13:46.652Z,3.30
2023-08-20T02:16:14.433Z,2.90
2023-08-20T02:18:42.208Z,3.83
2023-08-20T02:21:11.229Z,3.67
2023-08-20T02:23:39.070Z,4.20
2023-08-20T02:26:08.275Z,4.33
2023-08-20T02:28:36.262Z,4.87
2023-08-20T02:31:06.761Z,4.80
2023-08-20T02:33:34.522Z,4.23
2023-08-20T02:36:03.818Z,4.13
2023-08-20T02:38:33.046Z,3.87
2023-08-20T02:41:00.997Z,3.93
2023-08-20T02:43:28.645Z,3.70
2023-08-20T02:45:56.685Z,5.30
2023-08-20T02:48:27.902Z,3.93
2023-08-20T02:50:55.965Z,3.53
2023-08-20T02:53:24.376Z,4.00
2023-08-20T02:55:53.484Z,4.27
2023-08-20T02:58:21.197Z,3.57
2023-08-20T03:00:48.880Z,4.00
2023-08-20T03:03:16.773Z,3.60
2023-08-20T03:05:45.399Z,3.33
2023-08-20T03:08:13.238Z,3.10
2023-08-20T03:10:40.893Z,5.07
2023-08-20T03:13:10.504Z,3.43
2023-08-20T03:15:38.356Z,4.40
2023-08-20T03:18:07.455Z,3.60
2023-08-20T03:20:35.742Z,3.67
2023-08-20T03:23:03.753Z,3.47
2023-08-20T03:25:31.467Z,4.77
2023-08-20T03:27:59.447Z,2.73
2023-08-20T03:30:28.815Z,4.03
2023-08-20T03:32:57.083Z,2.83
2023-08-20T03:35:25.584Z,2.67
2023-08-20T03:37:53.425Z,2.77
2023-08-20T03:40:21.082Z,3.53
2023-08-20T03:42:48.997Z,3.40
2023-08-20T03:45:18.827Z,3.30
2023-08-20T03:47:48.518Z,3.43
2023-08-20T03:50:18.423Z,4.30
2023-08-20T03:52:46.825Z,5.40
2023-08-20T03:55:14.691Z,4.73
2023-08-20T03:57:42.368Z,3.27
2023-08-20T04:00:11.088Z,4.13
2023-08-20T04:02:45.761Z,3.87
2023-08-20T04:05:15.045Z,5.00
2023-08-20T04:07:42.724Z,3.30
2023-08-20T04:10:11.148Z,3.23
2023-08-20T04:12:38.811Z,3.43
2023-08-20T04:15:07.232Z,4.27
2023-08-20T04:17:35.310Z,3.63
2023-08-20T04:20:08.814Z,4.00
2023-08-20T04:22:38.309Z,4.07
2023-08-20T04:25:07.141Z,3.40
2023-08-20T04:27:35.468Z,4.77
2023-08-20T04:30:03.950Z,4.20
2023-08-20T04:32:31.794Z,5.67
2023-08-20T04:35:00.581Z,3.93
2023-08-20T04:37:28.760Z,4.33
2023-08-20T04:40:00.012Z,2.93
2023-08-20T04:42:30.304Z,3.50
2023-08-20T04:44:58.764Z,4.23
2023-08-20T04:47:28.023Z,4.17
2023-08-20T04:49:56.026Z,5.00
2023-08-20T04:52:24.059Z,4.63
2023-08-20T04:54:51.826Z,5.20
2023-08-20T04:57:24.604Z,4.67
2023-08-20T04:59:52.565Z,4.17
2023-08-20T05:02:28.408Z,5.13
2023-08-20T05:05:00.910Z,5.47
2023-08-20T05:07:29.410Z,4.77
2023-08-20T05:09:57.390Z,4.47
2023-08-20T05:12:26.997Z,5.77
2023-08-20T05:14:54.778Z,3.87
2023-08-20T05:17:23.192Z,4.57
2023-08-20T05:19:50.982Z,5.80
2023-08-20T05:22:18.807Z,5.90
2023-08-20T05:24:46.723Z,6.57
2023-08-20T05:27:18.661Z,7.07
2023-08-20T05:29:50.465Z,6.07
2023-08-20T05:32:19.678Z,3.77
2023-08-20T05:34:48.423Z,4.47
2023-08-20T05:37:16.300Z,5.87
2023-08-20T05:39:46.248Z,5.87
2023-08-20T05:42:14.841Z,5.93
2023-08-20T05:44:48.229Z,6.03
2023-08-20T05:47:22.403Z,5.20
2023-08-20T05:49:50.549Z,5.00
2023-08-20T05:52:18.843Z,5.43
2023-08-20T05:54:46.565Z,5.87
2023-08-20T05:57:14.493Z,6.80
2023-08-20T05:59:43.415Z,5.43
2023-08-20T06:02:11.415Z,5.97
2023-08-20T06:04:40.459Z,5.77
2023-08-20T06:07:08.270Z,5.33
2023-08-20T06:09:36.144Z,4.83
2023-08-20T06:12:03.924Z,7.40
2023-08-20T06:14:31.573Z,5.10
2023-08-20T06:16:59.451Z,5.90
2023-08-20T06:19:28.011Z,6.90
2023-08-20T06:21:57.247Z,6.43
2023-08-20T06:24:24.925Z,5.80
2023-08-20T06:26:53.356Z,5.50
2023-08-20T06:29:22.769Z,5.17
2023-08-20T06:31:51.516Z,6.17
2023-08-20T06:34:19.381Z,5.27
2023-08-20T06:36:47.207Z,5.10
2023-08-20T06:39:16.352Z,5.57
2023-08-20T06:41:44.145Z,6.17
2023-08-20T06:44:21.367Z,7.30
2023-08-20T06:46:49.061Z,6.73
2023-08-20T06:49:16.854Z,6.00
2023-08-20T06:51:44.545Z,6.00
2023-08-20T06:54:12.390Z,5.97
2023-08-20T06:56:41.405Z,7.40
2023-08-20T06:59:09.153Z,5.50
2023-08-20T07:01:36.860Z,5.70
2023-08-20T07:04:04.921Z,5.80
2023-08-20T07:06:32.806Z,6.40
2023-08-20T07:09:00.697Z,6.37
2023-08-20T07:11:28.573Z,5.72
2023-08-20T07:13:57.858Z,5.55
2023-08-20T07:16:25.682Z,6.55
2023-08-20T07:18:54.280Z,9.25
2023-08-20T07:21:22.028Z,5.18
2023-08-20T07:23:49.851Z,5.40
2023-08-20T07:26:17.542Z,6.60
2023-08-20T07:29:01.043Z,5.57
2023-08-20T07:31:32.012Z,6.18
2023-08-20T07:36:32.634Z,7.40
2023-08-20T07:39:02.678Z,5.82
2023-08-20T07:41:31.456Z,5.60
2023-08-20T07:43:59.136Z,5.50
2023-08-20T07:46:27.100Z,6.63
2023-08-20T07:48:56.133Z,5.47
2023-08-20T07:51:23.861Z,4.88
2023-08-20T07:53:51.536Z,6.78
2023-08-20T07:56:19.531Z,6.97
2023-08-20T07:58:47.229Z,6.57
2023-08-20T08:01:15.355Z,5.47
2023-08-20T08:03:43.214Z,6.35
2023-08-20T08:06:12.476Z,4.85
2023-08-20T08:08:44.403Z,4.50
2023-08-20T08:11:12.170Z,6.55
2023-08-20T08:13:39.975Z,5.03
2023-08-20T08:16:07.781Z,6.50
2023-08-20T08:18:35.469Z,4.63
2023-08-20T08:21:03.252Z,5.90
2023-08-20T08:23:32.298Z,5.70
2023-08-20T08:25:59.980Z,5.07
2023-08-20T08:28:27.762Z,5.68
2023-08-20T08:30:55.515Z,4.30
2023-08-20T08:33:24.792Z,3.78
2023-08-20T08:35:52.721Z,4.88
2023-08-20T08:38:20.396Z,5.53
2023-08-20T08:40:50.513Z,5.75
2023-08-20T08:43:18.884Z,5.43
2023-08-20T08:45:49.298Z,9.10
2023-08-20T08:48:18.095Z,7.03
2023-08-20T08:50:45.840Z,5.82
2023-08-20T08:53:15.413Z,5.63
2023-08-20T08:55:43.891Z,3.72
2023-08-20T08:58:14.302Z,5.20
2023-08-20T09:00:42.376Z,5.00
2023-08-20T09:03:10.250Z,5.43
2023-08-20T09:05:49.554Z,5.75
2023-08-20T09:08:23.683Z,4.25
2023-08-20T09:10:53.796Z,3.17
2023-08-20T09:13:26.406Z,4.22
2023-08-20T09:15:54.545Z,3.92
2023-08-20T09:18:22.653Z,5.50
2023-08-20T09:20:51.711Z,3.72
2023-08-20T09:23:19.381Z,4.03
2023-08-20T09:25:47.446Z,5.47
2023-08-20T09:28:15.936Z,4.53
2023-08-20T09:30:57.121Z,5.05
2023-08-20T09:33:24.881Z,3.92
2023-08-20T09:35:53.180Z,4.22
2023-08-20T09:38:22.142Z,3.90
2023-08-20T09:40:52.200Z,3.08
2023-08-20T09:43:20.621Z,3.75
2023-08-20T09:45:50.544Z,3.15
2023-08-20T09:48:22.297Z,4.97
2023-08-20T09:50:53.768Z,4.13
2023-08-20T09:53:28.228Z,3.35
2023-08-20T09:56:01.194Z,3.53
2023-08-20T09:58:29.733Z,3.05
2023-08-20T10:00:59.248Z,5.00
2023-08-20T10:03:27.152Z,3.72
2023-08-20T10:05:56.031Z,3.97
2023-08-20T10:08:23.896Z,3.20
2023-08-20T10:10:51.609Z,3.95
2023-08-20T10:13:19.844Z,2.75
2023-08-20T10:15:48.027Z,3.13
2023-08-20T10:18:17.283Z,3.55
2023-08-20T10:20:45.015Z,4.32
2023-08-20T10:23:14.363Z,2.63
2023-08-20T10:25:45.168Z,2.83
2023-08-20T10:28:15.760Z,3.28
2023-08-20T10:31:11.083Z,2.85
2023-08-20T10:33:41.473Z,3.72
2023-08-20T10:36:11.655Z,3.38
2023-08-20T10:38:40.283Z,3.65
2023-08-20T10:41:09.235Z,3.60
2023-08-20T10:43:38.914Z,2.40
2023-08-20T10:46:15.374Z,3.40
2023-08-20T10:48:45.754Z,2.92
2023-08-20T10:51:15.346Z,2.95
2023-08-20T10:53:44.608Z,2.70
2023-08-20T10:56:14.590Z,2.38
2023-08-20T10:58:47.911Z,3.15
2023-08-20T11:01:22.016Z,3.17
2023-08-20T11:03:52.268Z,2.40
2023-08-20T11:06:20.875Z,2.97
2023-08-20T11:08:48.754Z,3.05
2023-08-20T11:11:17.389Z,3.35
2023-08-20T11:13:45.425Z,3.33
2023-08-20T11:16:13.545Z,3.03
2023-08-20T11:18:41.409Z,3.03
2023-08-20T11:21:10.615Z,2.33
2023-08-20T11:23:40.888Z,2.58
2023-08-20T11:26:09.933Z,4.10
2023-08-20T11:28:37.795Z,2.55
2023-08-20T11:31:05.712Z,2.67
2023-08-20T11:33:33.579Z,3.58
2023-08-20T11:36:01.388Z,2.15
2023-08-20T11:38:31.452Z,2.80
2023-08-20T11:41:00.654Z,2.00
2023-08-20T11:43:29.416Z,2.70
2023-08-20T11:45:57.823Z,2.72
2023-08-20T11:48:25.731Z,2.50
2023-08-20T11:50:53.501Z,2.80
2023-08-20T11:53:24.286Z,2.17
2023-08-20T11:55:53.349Z,2.75
2023-08-20T11:58:22.565Z,1.98
2023-08-20T12:00:51.858Z,2.03
2023-08-20T12:03:21.748Z,2.72
2023-08-20T12:05:49.493Z,3.35
2023-08-20T12:08:18.977Z,2.65
2023-08-20T12:10:46.726Z,2.40
2023-08-20T12:13:15.917Z,2.22
2023-08-20T12:15:43.600Z,2.58
2023-08-20T12:18:11.670Z,1.98
2023-08-20T12:20:39.554Z,2.67
2023-08-20T12:23:08.840Z,2.95
2023-08-20T12:25:37.836Z,2.58
2023-08-20T12:28:06.816Z,2.92
2023-08-20T12:30:38.453Z,2.50
2023-08-20T12:33:07.870Z,2.45
2023-08-20T12:35:36.124Z,2.05
2023-08-20T12:38:03.832Z,2.20
2023-08-20T12:40:33.581Z,2.58
2023-08-20T12:43:01.301Z,1.67
2023-08-20T12:45:29.005Z,2.88
2023-08-20T12:48:00.730Z,1.30
2023-08-20T12:50:30.400Z,1.80
2023-08-20T12:52:58.183Z,2.70
2023-08-20T12:55:26.235Z,2.72
2023-08-20T12:57:55.991Z,1.88
2023-08-20T13:00:26.111Z,2.20
2023-08-20T13:02:54.552Z,2.88
2023-08-20T13:05:24.851Z,2.00
2023-08-20T13:07:53.078Z,2.00
2023-08-20T13:10:22.467Z,2.35
2023-08-20T13:12:52.304Z,3.53
2023-08-20T13:15:21.467Z,1.95
2023-08-20T13:17:51.504Z,1.75
2023-08-20T13:20:22.208Z,2.83
2023-08-20T13:22:51.585Z,2.17
2023-08-20T13:25:19.512Z,2.10
2023-08-20T13:27:47.425Z,2.53
2023-08-20T13:30:15.474Z,1.98
2023-08-20T13:32:43.630Z,1.85
2023-08-20T13:35:11.364Z,2.63
2023-08-20T13:37:39.300Z,2.17
2023-08-20T13:40:10.848Z,2.58
2023-08-20T13:42:39.041Z,3.45
2023-08-20T13:45:08.386Z,1.95
2023-08-20T13:47:36.223Z,2.08
2023-08-20T13:50:05.635Z,2.25
2023-08-20T13:52:33.857Z,2.63
2023-08-20T13:55:02.010Z,3.00
2023-08-20T13:57:31.165Z,2.65
2023-08-20T14:00:00.203Z,2.00
2023-08-20T14:02:27.994Z,2.60
2023-08-20T14:04:55.827Z,3.90
2023-08-20T14:07:24.476Z,2.33
2023-08-20T14:09:52.322Z,2.20
2023-08-20T14:12:21.001Z,2.78
2023-08-20T14:14:50.165Z,2.38
2023-08-20T14:17:18.215Z,2.60
2023-08-20T14:19:46.030Z,3.88
2023-08-20T14:22:13.682Z,2.22
2023-08-20T14:24:41.651Z,2.25
2023-08-20T14:27:09.414Z,2.45
2023-08-20T14:29:37.223Z,2.35
2023-08-20T14:32:06.634Z,2.22
2023-08-20T14:34:34.932Z,3.17
2023-08-20T14:37:02.640Z,1.83
2023-08-20T14:39:32.558Z,1.73
2023-08-20T14:42:01.129Z,2.58
2023-08-20T14:44:29.510Z,2.30
2023-08-20T14:46:57.248Z,2.28
2023-08-20T14:49:27.146Z,2.42
2023-08-20T14:52:02.999Z,3.08
2023-08-20T14:54:37.722Z,2.65
2023-08-20T14:57:05.637Z,3.58
2023-08-20T14:59:33.290Z,2.83
2023-08-20T15:02:01.021Z,2.25
2023-08-20T15:04:30.044Z,2.38
2023-08-20T15:06:57.954Z,2.45
2023-08-20T15:09:25.676Z,1.75
2023-08-20T15:11:53.457Z,1.73
2023-08-20T15:14:21.123Z,2.35
2023-08-20T15:16:49.385Z,1.98
2023-08-20T15:19:17.137Z,2.35
2023-08-20T15:21:46.374Z,3.20
2023-08-20T15:24:14.050Z,2.80
2023-08-20T15:26:42.460Z,2.55
2023-08-20T15:29:10.120Z,2.42
2023-08-20T15:31:37.930Z,1.70
2023-08-20T15:34:06.318Z,2.40
2023-08-20T15:36:34.281Z,2.33
2023-08-20T15:39:03.787Z,2.22
2023-08-20T15:41:31.585Z,1.80
2023-08-20T15:43:59.253Z,2.10
2023-08-20T15:46:27.078Z,1.98
2023-08-20T15:48:55.130Z,2.22
2023-08-20T15:51:22.844Z,2.45
2023-08-20T15:53:50.793Z,1.88
2023-08-20T15:56:19.764Z,2.33
2023-08-20T15:58:47.429Z,2.10
2023-08-20T16:01:15.202Z,2.63
2023-08-20T16:03:43.590Z,2.10
2023-08-20T16:06:11.609Z,2.10
2023-08-20T16:08:39.439Z,1.88
2023-08-20T16:11:07.177Z,2.63
2023-08-20T16:13:36.201Z,2.33
2023-08-20T16:16:03.953Z,2.75
2023-08-20T16:18:31.699Z,1.90
2023-08-20T16:20:59.335Z,3.13
2023-08-20T16:23:27.147Z,2.72
2023-08-20T16:25:54.816Z,2.17
2023-08-20T16:28:22.593Z,2.42
2023-08-20T16:30:53.217Z,2.45
2023-08-20T16:33:23.896Z,1.80
2023-08-20T16:35:52.043Z,2.42
2023-08-20T16:38:19.742Z,1.92
2023-08-20T16:40:47.970Z,2.38
2023-08-20T16:43:15.805Z,2.53
2023-08-20T16:45:43.495Z,2.85
2023-08-20T16:48:12.563Z,2.03
2023-08-20T16:50:40.390Z,1.90
2023-08-20T16:53:08.263Z,2.78
2023-08-20T16:55:36.048Z,1.88
2023-08-20T16:58:04.025Z,2.53
2023-08-20T17:00:31.700Z,2.78
2023-08-20T17:02:59.527Z,2.30
2023-08-20T17:05:28.590Z,2.22
2023-08-20T17:07:56.299Z,2.47
2023-08-20T17:10:24.847Z,2.35
2023-08-20T17:12:53.165Z,3.22
2023-08-20T17:15:21.698Z,4.15
2023-08-20T17:17:50.049Z,3.78
2023-08-20T17:20:17.902Z,2.50
2023-08-20T17:22:46.963Z,2.90
2023-08-20T17:25:14.753Z,2.20
2023-08-20T17:27:42.449Z,1.95
2023-08-20T17:30:13.083Z,1.75
2023-08-20T17:32:41.274Z,2.00
2023-08-20T17:35:10.095Z,3.25
2023-08-20T17:37:38.183Z,1.83
2023-08-20T17:40:11.345Z,2.35
2023-08-20T17:42:39.979Z,1.70
2023-08-20T17:45:09.584Z,2.58
2023-08-20T17:47:38.201Z,3.00
2023-08-20T17:50:06.439Z,2.85
2023-08-20T17:52:34.449Z,3.45
2023-08-20T17:55:04.049Z,2.15
2023-08-20T17:57:33.041Z,2.45
2023-08-20T18:00:00.966Z,2.17
2023-08-20T18:02:28.610Z,2.63
2023-08-20T18:04:56.395Z,2.38
2023-08-20T18:07:24.112Z,2.30
2023-08-20T18:09:51.908Z,2.50
2023-08-20T18:12:19.603Z,2.83
2023-08-20T18:14:48.830Z,2.33
2023-08-20T18:17:16.526Z,2.42
2023-08-20T18:19:44.327Z,3.47
2023-08-20T18:22:12.265Z,2.70
2023-08-20T18:24:39.937Z,2.53
2023-08-20T18:27:07.901Z,2.97
2023-08-20T18:29:35.598Z,2.25
2023-08-20T18:32:05.533Z,3.28
2023-08-20T18:34:33.192Z,2.05
2023-08-20T18:37:01.130Z,2.33
2023-08-20T18:39:28.924Z,2.58
2023-08-20T18:41:57.000Z,2.42
2023-08-20T18:44:24.748Z,2.45
2023-08-20T18:46:52.559Z,3.13
2023-08-20T18:49:21.637Z,3.03
2023-08-20T18:51:49.619Z,2.70
2023-08-20T18:54:17.298Z,3.17
2023-08-20T18:56:45.118Z,3.97
2023-08-20T18:59:12.990Z,2.70
2023-08-20T19:01:40.856Z,4.00
2023-08-20T19:04:08.593Z,3.05
2023-08-20T19:06:37.798Z,3.53
2023-08-20T19:09:07.213Z,2.30
2023-08-20T19:11:35.448Z,2.00
2023-08-20T19:14:03.251Z,3.00
2023-08-20T19:16:31.016Z,2.50
2023-08-20T19:18:58.747Z,3.42
2023-08-20T19:21:26.896Z,3.33
2023-08-20T19:23:56.765Z,5.00
2023-08-20T19:26:24.594Z,3.55
2023-08-20T19:28:52.245Z,4.47
2023-08-20T19:31:22.691Z,3.10
2023-08-20T19:33:50.772Z,2.88
2023-08-20T19:36:18.493Z,3.45
2023-08-20T19:38:46.204Z,3.42
2023-08-20T19:41:15.229Z,3.28
2023-08-20T19:43:42.927Z,2.53
2023-08-20T19:46:10.667Z,2.95
2023-08-20T19:48:38.455Z,3.90
2023-08-20T19:51:06.425Z,4.57
2023-08-20T19:53:34.101Z,2.80
2023-08-20T19:56:01.772Z,4.68
2023-08-20T19:58:30.877Z,4.40
2023-08-20T20:00:58.648Z,3.25
2023-08-20T20:03:26.968Z,3.55
2023-08-20T20:05:54.692Z,3.45
2023-08-20T20:08:24.375Z,3.78
2023-08-20T20:10:54.020Z,3.15
2023-08-20T20:13:22.303Z,3.90
2023-08-20T20:15:51.394Z,5.82
2023-08-20T20:18:19.070Z,4.63
2023-08-20T20:20:57.238Z,3.83
2023-08-20T20:23:25.210Z,4.45
2023-08-20T20:25:53.014Z,3.05
2023-08-20T20:28:20.815Z,3.97
2023-08-20T20:30:48.944Z,3.40
2023-08-20T20:33:18.066Z,4.78
2023-08-20T20:35:45.893Z,3.22
2023-08-20T20:38:13.538Z,3.03
2023-08-20T20:40:43.937Z,3.97
2023-08-20T20:43:11.682Z,2.95
2023-08-20T20:45:43.345Z,4.13
2023-08-20T20:48:11.041Z,2.40
2023-08-20T20:50:40.270Z,3.03
2023-08-20T20:53:08.532Z,3.53
2023-08-20T20:55:36.320Z,4.22
2023-08-20T20:58:05.105Z,3.45
2023-08-20T21:00:33.007Z,3.22
2023-08-20T21:03:00.844Z,5.18
2023-08-20T21:05:28.619Z,3.17
2023-08-20T21:07:57.627Z,3.55
2023-08-20T21:10:25.430Z,3.70
2023-08-20T21:12:53.108Z,2.50
2023-08-20T21:15:20.767Z,2.78
2023-08-20T21:17:48.457Z,3.38
2023-08-20T21:20:16.130Z,3.28
2023-08-20T21:22:43.912Z,3.13
2023-08-20T21:25:12.910Z,2.95
2023-08-20T21:27:40.610Z,3.83
2023-08-20T21:30:09.721Z,3.40
2023-08-20T21:32:37.654Z,3.15
2023-08-20T21:35:06.091Z,4.47
2023-08-20T21:37:33.803Z,3.30
2023-08-20T21:40:01.515Z,5.13
2023-08-20T21:42:30.678Z,4.75
2023-08-20T21:44:58.324Z,3.35
2023-08-20T21:47:27.632Z,3.35
2023-08-20T21:49:55.438Z,3.67
2023-08-20T21:52:24.410Z,3.72
2023-08-20T21:54:52.324Z,4.38
2023-08-20T21:57:21.035Z,3.90
2023-08-20T21:59:51.059Z,3.08
2023-08-20T22:02:19.753Z,3.67
2023-08-20T22:04:47.508Z,3.17
2023-08-20T22:07:15.184Z,4.18
2023-08-20T22:09:42.841Z,4.57
2023-08-20T22:12:12.037Z,4.38
2023-08-20T22:14:39.770Z,3.88
2023-08-20T22:17:09.560Z,3.67
2023-08-20T22:19:37.656Z,3.55
2023-08-20T22:22:05.373Z,3.70
2023-08-20T22:24:33.160Z,3.92
2023-08-20T22:27:00.820Z,3.60
2023-08-20T22:29:28.509Z,2.42
2023-08-20T22:31:56.185Z,5.10
2023-08-20T22:34:25.355Z,3.83
2023-08-20T22:36:53.013Z,3.60
2023-08-20T22:39:21.121Z,4.05
2023-08-20T22:41:48.791Z,2.92
2023-08-20T22:44:16.796Z,3.20
2023-08-20T22:46:44.443Z,3.80
2023-08-20T22:49:12.102Z,4.30
2023-08-20T22:51:41.089Z,4.20
2023-08-20T22:54:08.927Z,4.15
2023-08-20T22:56:36.589Z,3.72
2023-08-20T22:59:04.453Z,4.60
2023-08-20T23:01:32.792Z,3.60
2023-08-20T23:04:00.563Z,3.10
2023-08-20T23:06:28.592Z,5.40
2023-08-20T23:08:57.871Z,3.40
2023-08-20T23:11:25.540Z,3.92
2023-08-20T23:13:53.272Z,3.90
2023-08-20T23:16:21.071Z,4.32
2023-08-20T23:18:48.880Z,4.70
2023-08-20T23:21:16.576Z,4.93
2023-08-20T23:23:44.324Z,4.13
2023-08-20T23:26:13.366Z,3.67
2023-08-20T23:28:41.067Z,3.70
2023-08-20T23:31:09.488Z,4.43
2023-08-20T23:33:37.209Z,3.43
2023-08-20T23:36:05.267Z,2.70
2023-08-20T23:38:38.979Z,3.43
2023-08-20T23:41:06.787Z,3.90
2023-08-20T23:43:35.842Z,3.17
2023-08-20T23:46:03.586Z,4.53
2023-08-20T23:48:31.281Z,3.90
2023-08-20T23:50:59.071Z,4.80
2023-08-20T23:53:29.169Z,3.70
2023-08-20T23:55:56.957Z,4.10
2023-08-20T23:58:24.603Z,5.00
